createdAt,value
2017-11-22T00:00:29.079Z,3.47
2017-11-22T00:02:55.328Z,4.25
2017-11-22T00:05:21.767Z,4.37
2017-11-22T00:07:48.048Z,5.85
2017-11-22T00:10:14.294Z,5.22
2017-11-22T00:12:40.566Z,3.65
2017-11-22T00:15:06.983Z,3.92
2017-11-22T00:17:33.213Z,3.75
2017-11-22T00:20:00.227Z,3.55
2017-11-22T00:22:27.221Z,4.20
2017-11-22T00:24:53.458Z,4.95
2017-11-22T00:27:19.773Z,3.42
2017-11-22T00:29:46.036Z,3.50
2017-11-22T00:32:12.285Z,4.32
2017-11-22T00:34:38.526Z,3.15
2017-11-22T00:37:04.798Z,3.70
2017-11-22T00:39:31.829Z,2.30
2017-11-22T00:41:58.828Z,3.95
2017-11-22T00:44:25.076Z,4.45
2017-11-22T00:46:51.332Z,3.45
2017-11-22T00:49:18.393Z,3.83
2017-11-22T00:51:44.711Z,3.72
2017-11-22T00:54:11.714Z,3.72
2017-11-22T00:56:37.983Z,3.30
2017-11-22T00:59:04.956Z,4.50
2017-11-22T01:01:32.392Z,4.20
2017-11-22T01:03:58.818Z,2.35
2017-11-22T01:06:25.809Z,2.95
2017-11-22T01:08:52.106Z,3.08
2017-11-22T01:11:18.372Z,3.17
2017-11-22T01:13:44.939Z,3.37
2017-11-22T01:16:11.187Z,4.28
2017-11-22T01:18:38.243Z,2.90
2017-11-22T01:21:04.505Z,4.10
2017-11-22T01:23:30.745Z,3.80
2017-11-22T01:25:57.006Z,3.83
2017-11-22T01:28:23.991Z,2.90
2017-11-22T01:30:50.277Z,3.50
2017-11-22T01:33:17.279Z,3.25
2017-11-22T01:35:43.560Z,3.05
2017-11-22T01:38:09.847Z,3.83
2017-11-22T01:40:36.138Z,3.53
2017-11-22T01:43:02.432Z,3.30
2017-11-22T01:45:29.458Z,3.75
2017-11-22T01:47:55.754Z,3.12
2017-11-22T01:50:22.075Z,3.97
2017-11-22T01:52:48.349Z,3.90
2017-11-22T01:55:14.632Z,3.10
2017-11-22T01:57:40.920Z,3.22
2017-11-22T02:00:07.575Z,2.97
2017-11-22T02:02:33.847Z,2.25
2017-11-22T02:05:00.137Z,3.00
2017-11-22T02:07:26.432Z,3.12
2017-11-22T02:09:53.416Z,3.45
2017-11-22T02:12:19.714Z,3.70
2017-11-22T02:14:46.782Z,3.53
2017-11-22T02:17:14.485Z,3.75
2017-11-22T02:19:41.052Z,2.80
2017-11-22T02:22:07.339Z,3.80
2017-11-22T02:24:33.628Z,3.28
2017-11-22T02:26:59.901Z,3.03
2017-11-22T02:29:26.194Z,2.87
2017-11-22T02:31:52.486Z,2.65
2017-11-22T02:34:19.516Z,3.47
2017-11-22T02:36:45.834Z,2.78
2017-11-22T02:39:12.121Z,3.05
2017-11-22T02:41:38.391Z,2.85
2017-11-22T02:44:04.685Z,3.17
2017-11-22T02:46:31.295Z,2.20
2017-11-22T02:48:58.325Z,2.65
2017-11-22T02:51:25.356Z,2.17
2017-11-22T02:53:51.647Z,2.92
2017-11-22T02:56:17.914Z,2.60
2017-11-22T02:58:44.191Z,3.00
2017-11-22T03:01:10.476Z,2.92
2017-11-22T03:03:36.744Z,2.35
2017-11-22T03:06:03.030Z,2.25
2017-11-22T03:08:29.318Z,2.22
2017-11-22T03:10:55.616Z,2.35
2017-11-22T03:13:21.852Z,2.12
2017-11-22T03:15:48.189Z,2.25
2017-11-22T03:18:14.453Z,4.20
2017-11-22T03:20:40.705Z,2.70
2017-11-22T03:23:07.693Z,2.50
2017-11-22T03:25:33.925Z,2.30
2017-11-22T03:28:00.181Z,2.45
2017-11-22T03:30:26.414Z,2.30
2017-11-22T03:32:52.933Z,3.90
2017-11-22T03:35:19.198Z,2.55
2017-11-22T03:37:46.218Z,2.60
2017-11-22T03:40:12.514Z,2.62
2017-11-22T03:42:38.769Z,2.20
2017-11-22T03:45:05.082Z,2.37
2017-11-22T03:47:31.370Z,2.00
2017-11-22T03:50:03.709Z,2.55
2017-11-22T03:52:36.415Z,2.15
2017-11-22T03:55:02.721Z,2.30
2017-11-22T03:57:29.721Z,1.80
2017-11-22T03:59:56.436Z,2.37
2017-11-22T04:02:24.559Z,2.37
2017-11-22T04:04:53.711Z,2.33
2017-11-22T04:07:19.979Z,2.72
2017-11-22T04:09:46.240Z,4.10
2017-11-22T04:12:12.491Z,4.18
2017-11-22T04:14:38.786Z,2.20
2017-11-22T04:17:05.801Z,2.35
2017-11-22T04:19:32.060Z,2.20
2017-11-22T04:21:59.065Z,2.60
2017-11-22T04:24:26.060Z,2.67
2017-11-22T04:26:52.970Z,2.62
2017-11-22T04:29:19.237Z,2.17
2017-11-22T04:31:45.472Z,2.42
2017-11-22T04:34:11.739Z,2.30
2017-11-22T04:36:37.991Z,2.60
2017-11-22T04:39:04.265Z,2.40
2017-11-22T04:41:30.517Z,2.10
2017-11-22T04:43:56.783Z,2.42
2017-11-22T04:46:23.834Z,2.65
2017-11-22T04:48:50.881Z,2.10
2017-11-22T04:51:17.913Z,2.40
2017-11-22T04:53:44.894Z,1.95
2017-11-22T04:56:11.917Z,3.33
2017-11-22T04:58:38.193Z,2.80
2017-11-22T05:01:04.422Z,3.85
2017-11-22T05:03:30.709Z,3.83
2017-11-22T05:05:56.979Z,3.58
2017-11-22T05:08:23.274Z,3.58
2017-11-22T05:10:49.557Z,4.30
2017-11-22T05:13:15.790Z,4.20
2017-11-22T05:15:42.881Z,3.10
2017-11-22T05:18:09.143Z,3.25
2017-11-22T05:20:35.375Z,2.92
2017-11-22T05:23:01.648Z,3.08
2017-11-22T05:25:27.900Z,2.60
2017-11-22T05:27:54.169Z,2.62
2017-11-22T05:30:20.481Z,2.60
2017-11-22T05:32:46.721Z,2.78
2017-11-22T05:35:12.987Z,2.10
2017-11-22T05:37:39.252Z,2.37
2017-11-22T05:40:05.531Z,1.90
2017-11-22T05:42:31.783Z,2.33
2017-11-22T05:44:58.037Z,2.10
2017-11-22T05:47:24.287Z,2.97
2017-11-22T05:49:51.279Z,2.85
2017-11-22T05:52:17.836Z,2.67
2017-11-22T05:54:44.098Z,2.83
2017-11-22T05:57:11.129Z,2.80
2017-11-22T05:59:38.144Z,2.55
2017-11-22T06:02:04.400Z,2.87
2017-11-22T06:04:31.407Z,2.42
2017-11-22T06:06:57.696Z,2.87
2017-11-22T06:09:24.006Z,6.65
2017-11-22T06:11:50.286Z,30.67
2017-11-22T06:14:16.576Z,6.20
2017-11-22T06:16:43.565Z,8.57
2017-11-22T06:19:09.855Z,4.40
2017-11-22T06:21:36.834Z,3.97
2017-11-22T06:24:03.103Z,3.62
2017-11-22T06:26:29.324Z,3.83
2017-11-22T06:28:55.906Z,5.00
2017-11-22T06:31:22.185Z,3.70
2017-11-22T06:33:48.425Z,3.60
2017-11-22T06:36:14.701Z,3.45
2017-11-22T06:38:40.963Z,3.03
2017-11-22T06:41:07.559Z,3.83
2017-11-22T06:43:33.859Z,3.50
2017-11-22T06:46:00.859Z,3.37
2017-11-22T06:48:27.167Z,3.15
2017-11-22T06:50:53.418Z,3.87
2017-11-22T06:53:19.669Z,4.43
2017-11-22T06:55:45.931Z,4.82
2017-11-22T06:58:12.565Z,4.10
2017-11-22T07:00:38.863Z,3.85
2017-11-22T07:03:09.064Z,3.40
2017-11-22T07:05:35.346Z,4.80
2017-11-22T07:08:01.646Z,11.48
2017-11-22T07:10:28.623Z,13.70
2017-11-22T07:12:54.861Z,11.68
2017-11-22T07:15:21.568Z,9.68
2017-11-22T07:17:49.355Z,9.13
2017-11-22T07:20:15.613Z,9.65
2017-11-22T07:22:41.913Z,7.35
2017-11-22T07:25:08.169Z,5.47
2017-11-22T07:27:34.450Z,5.65
2017-11-22T07:30:00.691Z,5.35
2017-11-22T07:32:26.916Z,5.30
2017-11-22T07:34:53.199Z,4.40
2017-11-22T07:37:25.423Z,3.90
2017-11-22T07:39:51.749Z,4.12
2017-11-22T07:42:18.731Z,4.22
2017-11-22T07:44:44.969Z,3.70
2017-11-22T07:47:11.272Z,3.40
2017-11-22T07:49:37.537Z,3.75
2017-11-22T07:52:10.775Z,3.87
2017-11-22T07:54:37.047Z,3.95
2017-11-22T07:57:04.095Z,3.17
2017-11-22T07:59:31.096Z,3.45
2017-11-22T08:01:57.351Z,2.90
2017-11-22T08:04:23.687Z,3.72
2017-11-22T08:06:49.955Z,3.30
2017-11-22T08:09:16.267Z,2.92
2017-11-22T08:11:43.369Z,3.10
2017-11-22T08:14:09.652Z,3.30
2017-11-22T08:16:35.926Z,3.22
2017-11-22T08:19:02.171Z,4.65
2017-11-22T08:21:28.447Z,4.68
2017-11-22T08:23:54.705Z,4.87
2017-11-22T08:26:20.976Z,4.03
2017-11-22T08:28:48.000Z,3.90
2017-11-22T08:31:14.246Z,4.05
2017-11-22T08:33:41.278Z,3.08
2017-11-22T08:36:08.312Z,2.85
2017-11-22T08:38:34.879Z,2.75
2017-11-22T08:41:01.896Z,2.70
2017-11-22T08:43:32.134Z,3.50
2017-11-22T08:45:59.158Z,3.08
2017-11-22T08:48:25.446Z,2.60
2017-11-22T08:50:51.716Z,2.17
2017-11-22T08:53:17.984Z,1.65
2017-11-22T08:55:50.421Z,1.80
2017-11-22T08:58:16.764Z,2.17
2017-11-22T09:00:43.789Z,4.82
2017-11-22T09:03:17.088Z,4.87
2017-11-22T09:05:48.184Z,3.25
2017-11-22T09:08:14.485Z,2.65
2017-11-22T09:10:40.736Z,2.37
2017-11-22T09:13:06.991Z,3.10
2017-11-22T09:15:33.277Z,2.53
2017-11-22T09:18:05.646Z,2.37
2017-11-22T09:20:31.939Z,1.85
2017-11-22T09:22:58.213Z,2.12
2017-11-22T09:25:24.466Z,2.12
2017-11-22T09:27:55.818Z,2.05
2017-11-22T09:30:22.107Z,2.30
2017-11-22T09:32:51.450Z,1.90
2017-11-22T09:35:18.732Z,2.42
2017-11-22T09:37:45.749Z,1.67
2017-11-22T09:40:12.021Z,2.28
2017-11-22T09:42:38.329Z,1.95
2017-11-22T09:45:05.352Z,1.77
2017-11-22T09:47:31.611Z,2.17
2017-11-22T09:49:57.893Z,1.95
2017-11-22T09:52:24.180Z,2.40
2017-11-22T09:54:50.468Z,3.15
2017-11-22T09:57:16.722Z,1.90
2017-11-22T09:59:42.981Z,1.65
2017-11-22T10:02:09.261Z,1.30
2017-11-22T10:04:36.273Z,2.03
2017-11-22T10:07:02.568Z,1.95
2017-11-22T10:09:28.842Z,1.70
2017-11-22T10:11:55.130Z,2.45
2017-11-22T10:14:21.496Z,1.90
2017-11-22T10:16:47.792Z,1.48
2017-11-22T10:19:14.114Z,1.23
2017-11-22T10:21:41.316Z,1.20
2017-11-22T10:24:07.680Z,1.70
2017-11-22T10:26:33.988Z,1.97
2017-11-22T10:29:07.084Z,1.40
2017-11-22T10:31:34.140Z,1.50
2017-11-22T10:34:00.422Z,1.10
2017-11-22T10:36:26.710Z,1.13
2017-11-22T10:38:53.057Z,1.17
2017-11-22T10:41:19.324Z,1.83
2017-11-22T10:43:45.616Z,1.10
2017-11-22T10:46:11.898Z,1.60
2017-11-22T10:48:39.256Z,1.17
2017-11-22T10:51:06.276Z,0.97
2017-11-22T10:53:32.594Z,0.70
2017-11-22T10:55:58.904Z,0.93
2017-11-22T10:58:25.180Z,1.10
2017-11-22T11:00:52.222Z,1.00
2017-11-22T11:03:18.476Z,1.10
2017-11-22T11:05:44.901Z,1.00
2017-11-22T11:08:11.258Z,1.27
2017-11-22T11:10:37.538Z,1.37
2017-11-22T11:13:04.658Z,1.10
2017-11-22T11:15:30.901Z,1.30
2017-11-22T11:17:57.180Z,1.23
2017-11-22T11:20:23.432Z,0.90
2017-11-22T11:22:49.672Z,1.60
2017-11-22T11:25:15.965Z,1.10
2017-11-22T11:27:42.195Z,1.03
2017-11-22T11:30:08.446Z,1.60
2017-11-22T11:32:34.739Z,0.70
2017-11-22T11:35:00.983Z,1.00
2017-11-22T11:37:27.286Z,0.87
2017-11-22T11:39:53.657Z,1.17
2017-11-22T11:42:19.934Z,1.00
2017-11-22T11:44:46.176Z,1.20
2017-11-22T11:47:12.501Z,1.20
2017-11-22T11:49:38.792Z,1.23
2017-11-22T11:52:05.831Z,1.40
2017-11-22T11:54:32.140Z,1.23
2017-11-22T11:56:58.405Z,2.07
2017-11-22T11:59:25.415Z,1.30
2017-11-22T12:01:51.712Z,1.63
2017-11-22T12:04:17.985Z,1.40
2017-11-22T12:06:44.246Z,1.50
2017-11-22T12:09:10.540Z,1.73
2017-11-22T12:11:36.822Z,1.43
2017-11-22T12:14:03.052Z,1.90
2017-11-22T12:16:30.033Z,1.20
2017-11-22T12:18:56.315Z,1.57
2017-11-22T12:21:26.472Z,1.07
2017-11-22T12:23:52.756Z,1.13
2017-11-22T12:26:19.003Z,1.20
2017-11-22T12:28:45.249Z,1.23
2017-11-22T12:31:11.495Z,1.50
2017-11-22T12:33:37.754Z,1.27
2017-11-22T12:36:04.015Z,1.13
2017-11-22T12:38:30.282Z,1.20
2017-11-22T12:40:56.618Z,1.17
2017-11-22T12:43:22.789Z,1.07
2017-11-22T12:45:49.071Z,1.50
2017-11-22T12:48:16.106Z,1.63
2017-11-22T12:50:42.370Z,1.10
2017-11-22T12:53:08.672Z,1.83
2017-11-22T12:55:34.941Z,1.20
2017-11-22T12:58:01.215Z,1.00
2017-11-22T13:00:27.550Z,0.83
2017-11-22T13:02:53.793Z,1.00
2017-11-22T13:05:20.849Z,1.10
2017-11-22T13:07:47.127Z,1.37
2017-11-22T13:10:19.346Z,1.40
2017-11-22T13:12:45.644Z,1.33
2017-11-22T13:15:11.921Z,1.40
2017-11-22T13:17:44.977Z,1.33
2017-11-22T13:20:12.002Z,1.33
2017-11-22T13:22:38.271Z,1.30
2017-11-22T13:25:05.294Z,1.23
2017-11-22T13:27:32.342Z,1.33
2017-11-22T13:29:58.621Z,1.30
2017-11-22T13:32:25.887Z,2.03
2017-11-22T13:34:52.154Z,1.70
2017-11-22T13:37:18.439Z,1.40
2017-11-22T13:39:44.861Z,1.40
2017-11-22T13:42:11.221Z,1.30
2017-11-22T13:44:38.246Z,1.37
2017-11-22T13:47:04.536Z,1.20
2017-11-22T13:49:30.862Z,1.20
2017-11-22T13:51:57.142Z,0.90
2017-11-22T13:54:23.446Z,1.00
2017-11-22T13:56:49.740Z,2.20
2017-11-22T13:59:16.382Z,1.60
2017-11-22T14:01:42.741Z,1.53
2017-11-22T14:04:09.029Z,0.90
2017-11-22T14:06:35.347Z,1.20
2017-11-22T14:09:01.658Z,1.20
2017-11-22T14:11:28.844Z,0.90
2017-11-22T14:13:55.154Z,1.10
2017-11-22T14:16:22.173Z,1.00
2017-11-22T14:18:48.530Z,0.87
2017-11-22T14:21:14.847Z,1.07
2017-11-22T14:23:41.914Z,1.20
2017-11-22T14:26:08.260Z,1.00
2017-11-22T14:28:34.535Z,0.97
2017-11-22T14:31:00.840Z,0.93
2017-11-22T14:33:27.125Z,0.87
2017-11-22T14:35:53.470Z,1.00
2017-11-22T14:38:19.795Z,1.37
2017-11-22T14:40:46.130Z,1.00
2017-11-22T14:43:12.478Z,0.90
2017-11-22T14:45:38.786Z,1.10
2017-11-22T14:48:05.123Z,0.97
2017-11-22T14:50:31.533Z,1.50
2017-11-22T14:52:57.852Z,1.00
2017-11-22T14:55:24.182Z,1.00
2017-11-22T14:57:50.503Z,1.00
2017-11-22T15:00:17.566Z,0.90
2017-11-22T15:02:43.877Z,1.07
2017-11-22T15:05:11.072Z,0.93
2017-11-22T15:07:37.950Z,1.00
2017-11-22T15:10:05.758Z,1.00
2017-11-22T15:12:32.431Z,1.20
2017-11-22T15:14:59.727Z,1.53
2017-11-22T15:17:26.265Z,1.00
2017-11-22T15:19:52.600Z,1.30
2017-11-22T15:22:18.939Z,1.60
2017-11-22T15:24:45.953Z,2.30
2017-11-22T15:27:12.990Z,1.20
2017-11-22T15:29:40.007Z,1.03
2017-11-22T15:32:06.322Z,1.97
2017-11-22T15:34:32.623Z,1.63
2017-11-22T15:36:58.891Z,1.60
2017-11-22T15:39:25.310Z,1.35
2017-11-22T15:41:51.591Z,1.70
2017-11-22T15:44:17.915Z,1.27
2017-11-22T15:46:44.194Z,1.60
2017-11-22T15:49:10.480Z,1.40
2017-11-22T15:51:36.806Z,1.50
2017-11-22T15:54:03.129Z,1.25
2017-11-22T15:56:30.192Z,1.67
2017-11-22T15:58:56.502Z,1.50
2017-11-22T16:01:23.499Z,11.95
2017-11-22T16:03:49.930Z,37.53
2017-11-22T16:06:16.189Z,33.03
2017-11-22T16:08:42.432Z,31.08
2017-11-22T16:11:08.772Z,25.12
2017-11-22T16:13:35.066Z,17.60
2017-11-22T16:16:01.424Z,14.70
2017-11-22T16:18:27.709Z,9.18
2017-11-22T16:20:54.018Z,6.40
2017-11-22T16:23:20.751Z,6.75
2017-11-22T16:25:47.067Z,8.95
2017-11-22T16:28:13.369Z,8.05
2017-11-22T16:30:40.411Z,8.05
2017-11-22T16:33:06.737Z,10.65
2017-11-22T16:35:33.797Z,12.30
2017-11-22T16:38:01.004Z,10.73
2017-11-22T16:40:28.172Z,13.85
2017-11-22T16:42:54.461Z,14.50
2017-11-22T16:45:20.696Z,12.40
2017-11-22T16:47:47.014Z,13.57
2017-11-22T16:50:13.287Z,13.55
2017-11-22T16:52:39.595Z,14.02
2017-11-22T16:55:05.902Z,13.05
2017-11-22T16:57:32.214Z,14.20
2017-11-22T16:59:58.536Z,13.65
2017-11-22T17:02:24.810Z,12.40
2017-11-22T17:04:51.095Z,13.07
2017-11-22T17:07:17.397Z,12.05
2017-11-22T17:09:44.413Z,11.15
2017-11-22T17:12:10.761Z,8.70
2017-11-22T17:14:37.780Z,10.00
2017-11-22T17:17:04.054Z,13.80
2017-11-22T17:19:30.347Z,12.55
2017-11-22T17:21:57.098Z,13.62
2017-11-22T17:24:24.201Z,11.80
2017-11-22T17:26:50.535Z,12.50
2017-11-22T17:29:16.835Z,10.55
2017-11-22T17:31:43.165Z,9.50
2017-11-22T17:34:09.475Z,9.60
2017-11-22T17:36:36.554Z,10.85
2017-11-22T17:39:02.960Z,9.38
2017-11-22T17:41:29.257Z,9.10
2017-11-22T17:43:55.590Z,9.23
2017-11-22T17:46:21.847Z,9.13
2017-11-22T17:48:48.189Z,9.88
2017-11-22T17:51:14.530Z,11.00
2017-11-22T17:53:40.829Z,12.45
2017-11-22T17:56:07.138Z,12.70
2017-11-22T17:58:34.222Z,13.40
2017-11-22T18:01:00.553Z,11.90
2017-11-22T18:03:26.898Z,11.38
2017-11-22T18:05:53.230Z,11.43
2017-11-22T18:08:19.542Z,12.20
2017-11-22T18:10:45.908Z,12.95
2017-11-22T18:13:12.303Z,12.60
2017-11-22T18:15:38.638Z,13.20
2017-11-22T18:18:05.011Z,12.07
2017-11-22T18:20:32.108Z,11.90
2017-11-22T18:22:58.421Z,10.52
2017-11-22T18:25:24.743Z,10.48
2017-11-22T18:27:51.810Z,10.77
2017-11-22T18:30:18.137Z,11.05
2017-11-22T18:32:44.432Z,14.90
2017-11-22T18:35:11.539Z,12.00
2017-11-22T18:37:37.921Z,10.45
2017-11-22T18:40:05.092Z,11.10
2017-11-22T18:42:31.462Z,10.40
2017-11-22T18:44:57.907Z,10.70
2017-11-22T18:47:25.002Z,10.45
2017-11-22T18:49:51.356Z,12.32
2017-11-22T18:52:17.665Z,12.60
2017-11-22T18:54:43.999Z,11.10
2017-11-22T18:57:10.377Z,10.98
2017-11-22T18:59:43.769Z,10.77
2017-11-22T19:02:10.833Z,11.52
2017-11-22T19:04:37.885Z,12.95
2017-11-22T19:07:04.320Z,13.82
2017-11-22T19:09:30.671Z,11.20
2017-11-22T19:11:57.073Z,13.35
2017-11-22T19:14:23.385Z,17.80
2017-11-22T19:16:50.478Z,17.42
2017-11-22T19:19:16.830Z,14.05
2017-11-22T19:21:43.214Z,13.02
2017-11-22T19:24:09.533Z,13.70
2017-11-22T19:26:35.850Z,15.43
2017-11-22T19:29:03.000Z,14.85
2017-11-22T19:31:29.346Z,14.38
2017-11-22T19:33:57.297Z,14.00
2017-11-22T19:36:24.352Z,15.32
2017-11-22T19:38:51.548Z,16.12
2017-11-22T19:41:17.945Z,15.63
2017-11-22T19:43:44.345Z,13.75
2017-11-22T19:46:10.690Z,13.57
2017-11-22T19:48:37.818Z,12.57
2017-11-22T19:51:04.292Z,13.15
2017-11-22T19:53:30.624Z,14.50
2017-11-22T19:55:56.986Z,13.35
2017-11-22T19:58:23.355Z,13.38
2017-11-22T20:00:49.784Z,14.43
2017-11-22T20:03:16.933Z,14.57
2017-11-22T20:05:43.976Z,13.07
2017-11-22T20:08:23.347Z,13.75
2017-11-22T20:10:49.710Z,16.50
2017-11-22T20:13:16.136Z,13.32
2017-11-22T20:15:42.489Z,14.27
2017-11-22T20:18:09.566Z,13.70
2017-11-22T20:20:35.888Z,13.70
2017-11-22T20:23:02.966Z,13.90
2017-11-22T20:25:36.142Z,14.25
2017-11-22T20:28:02.485Z,13.05
2017-11-22T20:30:28.855Z,13.43
2017-11-22T20:32:55.222Z,21.25
2017-11-22T20:35:21.600Z,18.15
2017-11-22T20:37:47.928Z,14.70
2017-11-22T20:40:14.262Z,13.80
2017-11-22T20:42:40.589Z,13.95
2017-11-22T20:45:07.696Z,14.85
2017-11-22T20:47:34.080Z,16.27
2017-11-22T20:50:02.558Z,17.05
2017-11-22T20:52:28.912Z,16.60
2017-11-22T20:54:55.985Z,19.08
2017-11-22T20:57:22.337Z,19.10
2017-11-22T20:59:48.658Z,21.67
2017-11-22T21:02:14.987Z,25.15
2017-11-22T21:04:41.293Z,21.90
2017-11-22T21:07:07.654Z,23.75
2017-11-22T21:09:34.022Z,24.05
2017-11-22T21:12:01.088Z,21.12
2017-11-22T21:14:27.425Z,21.85
2017-11-22T21:16:53.708Z,19.60
2017-11-22T21:19:19.999Z,30.27
2017-11-22T21:21:46.548Z,32.38
2017-11-22T21:24:13.077Z,26.33
2017-11-22T21:26:39.373Z,23.25
2017-11-22T21:29:05.663Z,21.02
2017-11-22T21:31:31.943Z,22.08
2017-11-22T21:33:58.265Z,21.58
2017-11-22T21:36:24.587Z,23.50
2017-11-22T21:38:50.942Z,19.33
2017-11-22T21:41:17.244Z,18.60
2017-11-22T21:43:43.522Z,17.52
2017-11-22T21:46:09.814Z,19.23
2017-11-22T21:48:36.094Z,19.23
2017-11-22T21:51:02.352Z,19.05
2017-11-22T21:53:28.599Z,19.77
2017-11-22T21:55:54.865Z,17.55
2017-11-22T21:58:21.151Z,17.50
2017-11-22T22:00:47.403Z,18.27
2017-11-22T22:03:13.711Z,17.77
2017-11-22T22:05:39.982Z,17.05
2017-11-22T22:08:06.246Z,17.33
2017-11-22T22:10:32.519Z,17.90
2017-11-22T22:12:58.776Z,18.70
2017-11-22T22:15:25.028Z,18.77
2017-11-22T22:17:51.277Z,19.48
2017-11-22T22:20:17.537Z,16.90
2017-11-22T22:22:43.870Z,21.25
2017-11-22T22:25:10.113Z,17.83
2017-11-22T22:27:37.129Z,16.80
2017-11-22T22:30:04.161Z,16.35
2017-11-22T22:32:30.407Z,17.70
2017-11-22T22:34:56.672Z,16.27
2017-11-22T22:37:23.674Z,17.77
2017-11-22T22:39:50.032Z,17.52
2017-11-22T22:42:16.342Z,15.75
2017-11-22T22:44:42.612Z,16.58
2017-11-22T22:47:08.867Z,18.40
2017-11-22T22:49:35.123Z,17.58
2017-11-22T22:52:01.383Z,17.02
2017-11-22T22:54:28.396Z,14.32
2017-11-22T22:56:54.655Z,14.70
2017-11-22T22:59:21.705Z,13.30
2017-11-22T23:01:48.712Z,14.93
2017-11-22T23:04:14.968Z,14.30
2017-11-22T23:06:41.973Z,15.55
2017-11-22T23:09:08.313Z,15.88
2017-11-22T23:11:34.579Z,16.48
2017-11-22T23:14:01.937Z,18.33
2017-11-22T23:16:28.161Z,16.98
2017-11-22T23:18:54.413Z,18.02
2017-11-22T23:21:20.759Z,15.43
2017-11-22T23:23:47.038Z,13.18
2017-11-22T23:26:14.050Z,15.88
2017-11-22T23:28:40.300Z,15.75
2017-11-22T23:31:06.576Z,14.50
2017-11-22T23:33:32.840Z,15.85
2017-11-22T23:35:59.094Z,14.48
2017-11-22T23:38:26.149Z,14.13
2017-11-22T23:40:52.477Z,15.07
2017-11-22T23:43:19.624Z,13.60
2017-11-22T23:45:45.910Z,12.85
2017-11-22T23:48:12.971Z,11.75
2017-11-22T23:50:39.226Z,15.05
2017-11-22T23:53:05.466Z,13.50
2017-11-22T23:55:31.733Z,11.75
2017-11-22T23:57:57.969Z,12.50
